Time;durP1;ratioP1;P1;durP2;ratioP2;P2;SDS_P1;SDS_P2;PMS_P1;PMS_P2;Temp;Humidity;BMP_temperature;BMP_pressure;BME280_temperature;BME280_humidity;BME280_pressure;Samples;Min_cycle;Max_cycle;Signal;HPM_P1;HPM_P2
2021/06/17 00:00:49;;;;;;;23.20;19.90;;;22.50;84.70;;;;;;5166530;27;20620;-70
2021/06/17 00:03:16;;;;;;;21.23;19.33;;;22.50;84.80;;;;;;5164833;27;20712;-70
2021/06/17 00:05:45;;;;;;;30.03;20.60;;;22.50;85.20;;;;;;5165541;27;20248;-70
2021/06/17 00:08:12;;;;;;;22.73;19.40;;;22.50;85.20;;;;;;5156512;27;20388;-70
2021/06/17 00:10:46;;;;;;;31.33;18.40;;;22.40;85.20;;;;;;5162871;27;20206;-70
2021/06/17 00:13:19;;;;;;;21.80;19.47;;;22.40;85.20;;;;;;5155440;27;20272;-70
2021/06/17 00:15:49;;;;;;;24.63;19.77;;;22.40;85.20;;;;;;5164405;27;20211;-70
2021/06/17 00:18:17;;;;;;;24.33;20.87;;;22.40;86.00;;;;;;5160772;27;20210;-70
2021/06/17 00:20:45;;;;;;;23.80;20.50;;;22.40;85.50;;;;;;5166677;27;20290;-70
2021/06/17 00:23:12;;;;;;;22.97;20.23;;;22.30;85.70;;;;;;5155289;27;20222;-70
2021/06/17 00:25:40;;;;;;;26.97;21.13;;;22.30;85.90;;;;;;5156715;27;20198;-70
2021/06/17 00:28:07;;;;;;;24.77;20.40;;;22.30;86.10;;;;;;5165743;27;20250;-70
2021/06/17 00:30:35;;;;;;;22.83;20.63;;;22.30;86.20;;;;;;5163140;27;20207;-70
2021/06/17 00:33:02;;;;;;;22.17;20.07;;;22.30;86.10;;;;;;5165698;27;20215;-70
2021/06/17 00:35:29;;;;;;;23.40;20.93;;;22.40;86.00;;;;;;5164193;27;20207;-70
2021/06/17 00:37:58;;;;;;;26.33;22.77;;;22.40;86.00;;;;;;5166403;27;20623;-70
2021/06/17 00:40:25;;;;;;;28.53;22.97;;;22.50;86.20;;;;;;5159145;27;20219;-70
2021/06/17 00:42:54;;;;;;;26.20;23.30;;;22.40;86.20;;;;;;5161746;27;20263;-70
2021/06/17 00:45:29;;;;;;;26.83;22.57;;;22.40;86.00;;;;;;5165444;27;20206;-70
2021/06/17 00:47:57;;;;;;;30.57;22.30;;;22.40;86.00;;;;;;5161817;27;20203;-70
2021/06/17 00:50:29;;;;;;;28.40;21.73;;;22.30;86.20;;;;;;5166539;27;20593;-70
2021/06/17 00:52:56;;;;;;;26.90;20.70;;;22.30;86.30;;;;;;5160260;27;20299;-70
2021/06/17 00:55:23;;;;;;;21.80;19.60;;;22.30;86.10;;;;;;5165633;27;20214;-70
2021/06/17 00:57:50;;;;;;;23.30;21.00;;;22.30;85.90;;;;;;5164838;27;20214;-70
2021/06/17 01:00:19;;;;;;;25.27;22.90;;;22.40;85.80;;;;;;5165038;27;20587;-70
2021/06/17 01:02:46;;;;;;;28.77;23.73;;;22.30;86.00;;;;;;5163045;27;20220;-70
2021/06/17 01:05:18;;;;;;;26.60;23.80;;;22.30;86.30;;;;;;5166740;27;20286;-70
2021/06/17 01:08:15;;;;;;;31.83;24.77;;;22.30;86.50;;;;;;5160604;27;20208;-70
2021/06/17 01:11:04;;;;;;;27.57;22.03;;;22.20;86.60;;;;;;5159944;27;20233;-70
2021/06/17 01:13:44;;;;;;;26.57;23.80;;;22.20;86.40;;;;;;5163799;27;20222;-70
2021/06/17 01:16:14;;;;;;;28.43;25.37;;;22.20;86.50;;;;;;5161434;27;20207;-70
2021/06/17 01:18:47;;;;;;;27.83;24.97;;;22.20;86.70;;;;;;5166196;27;20282;-70
2021/06/17 01:21:37;;;;;;;28.93;25.83;;;22.20;86.80;;;;;;5168166;27;20679;-70
2021/06/17 01:24:19;;;;;;;28.00;24.87;;;22.10;87.00;;;;;;5168153;27;20290;-70
2021/06/17 01:27:06;;;;;;;26.97;24.17;;;22.10;87.10;;;;;;5170299;27;20210;-70
2021/06/17 01:29:39;;;;;;;28.63;25.47;;;22.10;87.20;;;;;;5166169;27;20203;-70
2021/06/17 01:32:09;;;;;;;27.50;24.73;;;22.10;87.20;;;;;;5163447;27;20655;-70
2021/06/17 01:34:39;;;;;;;29.27;24.50;;;22.10;87.30;;;;;;5168630;27;20252;-70
2021/06/17 01:37:11;;;;;;;26.63;23.93;;;22.10;87.30;;;;;;5168961;27;20227;-70
2021/06/17 01:39:40;;;;;;;24.67;22.07;;;22.10;87.20;;;;;;5166449;27;20731;-70
2021/06/17 01:42:09;;;;;;;25.20;22.60;;;22.10;86.80;;;;;;5161533;27;20218;-70
2021/06/17 01:44:38;;;;;;;28.10;22.40;;;22.10;86.60;;;;;;5167093;27;20268;-70
2021/06/17 01:47:06;;;;;;;26.30;22.10;;;22.00;86.30;;;;;;5165182;27;20286;-70
2021/06/17 01:49:38;;;;;;;25.97;23.20;;;22.00;86.20;;;;;;5168627;27;20597;-70
2021/06/17 01:52:06;;;;;;;27.73;23.47;;;22.00;86.10;;;;;;5166011;27;20678;-70
2021/06/17 01:54:40;;;;;;;41.93;24.80;;;21.90;86.20;;;;;;5162601;27;20242;-68
2021/06/17 01:57:09;;;;;;;24.87;22.47;;;21.80;86.20;;;;;;5168211;27;20263;-68
2021/06/17 01:59:37;;;;;;;29.47;22.47;;;21.80;86.20;;;;;;5168744;27;20229;-68
2021/06/17 02:02:05;;;;;;;25.20;21.83;;;21.80;86.30;;;;;;5169913;27;20263;-68
2021/06/17 02:04:34;;;;;;;30.37;25.37;;;21.80;86.20;;;;;;5165605;27;20299;-68
2021/06/17 02:07:02;;;;;;;34.57;27.17;;;21.70;86.30;;;;;;5169402;27;20733;-68
2021/06/17 02:09:30;;;;;;;27.60;24.13;;;21.70;86.60;;;;;;5166991;27;20240;-68
2021/06/17 02:11:57;;;;;;;32.53;28.90;;;21.60;86.50;;;;;;5160521;27;20252;-68
2021/06/17 02:14:27;;;;;;;32.47;28.87;;;21.50;86.90;;;;;;5166865;27;20243;-68
2021/06/17 02:16:59;;;;;;;34.00;30.33;;;21.50;87.60;;;;;;5165213;27;20251;-68
2021/06/17 02:19:28;;;;;;;34.70;30.63;;;21.40;88.00;;;;;;5170700;27;20259;-68
2021/06/17 02:21:59;;;;;;;33.63;29.23;;;21.40;88.30;;;;;;5167159;27;20242;-68
2021/06/17 02:24:29;;;;;;;33.77;30.10;;;21.40;88.50;;;;;;5165330;27;20683;-68
2021/06/17 02:27:00;;;;;;;34.43;30.40;;;21.40;88.40;;;;;;5161911;27;20219;-68
2021/06/17 02:29:29;;;;;;;41.17;36.53;;;21.30;88.60;;;;;;5155220;27;20673;-68
2021/06/17 02:31:57;;;;;;;43.20;35.97;;;21.30;89.20;;;;;;5160316;27;20256;-68
2021/06/17 02:34:25;;;;;;;33.47;27.00;;;21.20;89.70;;;;;;5164621;27;20533;-68
2021/06/17 02:36:53;;;;;;;29.80;26.13;;;21.30;89.50;;;;;;5168005;27;20215;-68
2021/06/17 02:39:24;;;;;;;27.87;23.77;;;21.30;89.00;;;;;;5165991;27;20214;-68
2021/06/17 02:41:56;;;;;;;26.53;23.80;;;21.30;88.60;;;;;;5155243;27;20214;-68
2021/06/17 02:44:25;;;;;;;27.87;24.73;;;21.20;88.10;;;;;;5169270;27;20235;-68
2021/06/17 02:46:54;;;;;;;29.83;26.67;;;21.30;88.10;;;;;;5166098;27;20218;-68
2021/06/17 02:49:21;;;;;;;41.40;33.30;;;21.20;87.90;;;;;;5167181;27;20218;-68
2021/06/17 02:51:48;;;;;;;34.77;29.97;;;21.20;88.00;;;;;;5164367;27;20248;-68
2021/06/17 02:54:20;;;;;;;40.73;34.27;;;21.20;88.10;;;;;;5168410;27;20306;-68
2021/06/17 02:56:56;;;;;;;36.57;31.33;;;21.10;88.60;;;;;;5167681;27;20296;-68
2021/06/17 02:59:58;;;;;;;38.43;32.70;;;21.10;88.90;;;;;;5172310;27;20233;-68
2021/06/17 03:03:03;;;;;;;37.50;33.23;;;21.00;89.30;;;;;;5156699;27;20274;-68
2021/06/17 03:05:52;;;;;;;38.20;34.13;;;21.00;89.30;;;;;;5166222;27;20283;-68
2021/06/17 03:08:26;;;;;;;34.00;30.60;;;21.00;89.40;;;;;;5165669;27;20276;-68
2021/06/17 03:10:58;;;;;;;34.00;30.33;;;21.00;89.60;;;;;;5169909;27;20221;-68
2021/06/17 03:13:30;;;;;;;35.90;32.00;;;20.90;89.50;;;;;;5166506;27;20207;-68
2021/06/17 03:15:57;;;;;;;42.53;31.43;;;20.90;89.60;;;;;;5171988;27;20210;-68
2021/06/17 03:18:25;;;;;;;36.60;32.17;;;20.80;89.80;;;;;;5175363;27;20206;-68
2021/06/17 03:20:55;;;;;;;34.33;30.43;;;20.80;89.90;;;;;;5170257;27;20210;-68
2021/06/17 03:23:25;;;;;;;35.07;30.90;;;20.80;90.00;;;;;;5171913;27;20202;-68
2021/06/17 03:25:58;;;;;;;36.87;32.27;;;20.80;90.10;;;;;;5164172;27;20644;-68
2021/06/17 03:28:27;;;;;;;38.43;32.70;;;20.80;90.10;;;;;;5168266;27;20547;-68
2021/06/17 03:30:55;;;;;;;38.00;33.37;;;20.80;90.10;;;;;;5169555;27;20233;-68
2021/06/17 03:33:26;;;;;;;34.00;30.20;;;20.80;90.10;;;;;;5167948;27;20211;-68
2021/06/17 03:35:55;;;;;;;43.00;31.10;;;20.80;90.20;;;;;;5147596;27;20279;-68
2021/06/17 03:38:23;;;;;;;34.47;30.97;;;20.70;90.10;;;;;;5172074;27;20293;-68
2021/06/17 03:40:52;;;;;;;33.30;29.90;;;20.70;90.10;;;;;;5171173;27;20292;-68
2021/06/17 03:43:21;;;;;;;34.60;30.90;;;20.70;90.10;;;;;;5148190;27;20214;-68
2021/06/17 03:45:50;;;;;;;35.13;31.47;;;20.70;90.40;;;;;;5169346;27;20319;-67
2021/06/17 03:48:18;;;;;;;44.20;33.07;;;20.70;90.20;;;;;;5163920;27;20287;-68
2021/06/17 03:50:46;;;;;;;33.97;29.20;;;20.70;90.30;;;;;;5167129;27;20563;-67
2021/06/17 03:53:14;;;;;;;33.40;29.83;;;20.70;90.30;;;;;;5167799;27;20298;-67
2021/06/17 03:55:43;;;;;;;34.73;31.00;;;20.80;90.20;;;;;;5167841;27;20662;-67
2021/06/17 03:58:10;;;;;;;29.53;26.33;;;20.90;90.10;;;;;;5163688;27;20236;-67
2021/06/17 04:00:39;;;;;;;38.10;26.43;;;20.90;90.00;;;;;;5167045;27;20677;-67
2021/06/17 04:03:08;;;;;;;38.57;28.77;;;20.90;89.10;;;;;;5164030;27;20222;-67
2021/06/17 04:05:38;;;;;;;33.83;27.70;;;20.90;88.80;;;;;;5167793;27;20274;-67
2021/06/17 04:08:11;;;;;;;33.67;30.07;;;20.90;88.90;;;;;;5147708;27;20202;-67
2021/06/17 04:10:40;;;;;;;32.77;28.40;;;20.90;89.00;;;;;;5167392;27;20219;-67
2021/06/17 04:13:11;;;;;;;33.73;27.63;;;21.00;89.00;;;;;;5165786;27;20214;-67
2021/06/17 04:15:39;;;;;;;34.97;23.80;;;21.00;88.80;;;;;;5164909;27;20199;-67
2021/06/17 04:18:07;;;;;;;29.60;25.17;;;21.10;88.30;;;;;;5163362;27;20214;-67
2021/06/17 04:20:45;;;;;;;34.57;31.03;;;21.10;87.70;;;;;;5141641;27;20218;-68
2021/06/17 04:23:18;;;;;;;34.87;31.13;;;21.20;87.90;;;;;;5159385;27;20210;-68
2021/06/17 04:25:46;;;;;;;37.63;30.10;;;21.20;88.40;;;;;;5164484;27;20546;-68
2021/06/17 04:28:14;;;;;;;31.17;27.77;;;21.20;88.50;;;;;;5162192;27;20211;-68
2021/06/17 04:30:42;;;;;;;33.53;29.67;;;21.30;88.50;;;;;;5162945;27;20629;-68
2021/06/17 04:33:13;;;;;;;44.17;31.87;;;21.40;88.80;;;;;;5166716;27;20206;-68
2021/06/17 04:35:43;;;;;;;46.60;33.53;;;21.50;88.20;;;;;;5159673;27;20260;-68
2021/06/17 04:38:15;;;;;;;40.87;32.10;;;21.50;88.30;;;;;;5164946;27;20211;-68
2021/06/17 04:40:45;;;;;;;35.47;31.57;;;21.60;88.30;;;;;;5164655;27;20277;-68
2021/06/17 04:43:14;;;;;;;37.90;33.77;;;21.70;88.30;;;;;;5137822;27;20560;-68
2021/06/17 04:45:43;;;;;;;38.60;33.63;;;21.80;88.20;;;;;;5158379;27;20275;-68
2021/06/17 04:48:12;;;;;;;41.73;32.07;;;21.90;88.20;;;;;;5164086;27;20203;-68
2021/06/17 04:50:40;;;;;;;43.90;34.83;;;22.00;88.10;;;;;;5165393;27;20213;-68
2021/06/17 04:53:11;;;;;;;47.37;39.17;;;22.20;87.80;;;;;;5167950;27;20238;-68
2021/06/17 04:55:45;;;;;;;44.83;39.93;;;22.20;87.70;;;;;;5171564;27;20222;-68
2021/06/17 04:58:13;;;;;;;59.50;43.27;;;22.30;87.60;;;;;;5147130;27;20528;-68
2021/06/17 05:00:40;;;;;;;63.10;44.50;;;22.40;87.50;;;;;;5169635;27;20214;-68
2021/06/17 05:03:07;;;;;;;64.43;44.37;;;22.50;87.30;;;;;;5165377;27;20210;-68
2021/06/17 05:05:34;;;;;;;56.57;40.73;;;22.70;87.40;;;;;;5168057;27;20244;-68
2021/06/17 05:10:59;;;;;;;66.97;41.83;;;23.10;86.90;;;;;;5166689;27;20279;-68
2021/06/17 05:13:28;;;;;;;59.60;43.63;;;23.30;86.60;;;;;;5166634;27;20214;-68
2021/06/17 05:15:57;;;;;;;67.43;46.30;;;23.40;86.40;;;;;;5166354;27;20211;-68
2021/06/17 05:18:24;;;;;;;66.43;47.57;;;23.60;86.00;;;;;;5166582;27;20206;-68
2021/06/17 05:20:52;;;;;;;66.23;46.30;;;23.70;85.60;;;;;;5169911;27;20207;-68
2021/06/17 05:23:23;;;;;;;66.20;47.23;;;23.90;85.50;;;;;;5167817;27;20247;-68
2021/06/17 05:25:51;;;;;;;67.77;49.13;;;24.00;85.30;;;;;;5162996;27;20264;-68
2021/06/17 05:28:21;;;;;;;53.67;41.60;;;24.10;85.10;;;;;;5169723;27;20278;-68
2021/06/17 05:30:50;;;;;;;56.17;42.90;;;24.30;84.80;;;;;;5166639;27;20207;-68
2021/06/17 05:33:17;;;;;;;47.17;39.93;;;24.40;84.40;;;;;;5167426;27;20299;-68
2021/06/17 05:35:46;;;;;;;38.73;34.57;;;24.50;84.00;;;;;;5166134;27;20221;-68
2021/06/17 05:38:21;;;;;;;37.63;33.33;;;24.70;83.50;;;;;;5170363;27;20536;-69
2021/06/17 05:40:49;;;;;;;34.87;31.07;;;25.00;83.00;;;;;;5170315;27;20210;-69
2021/06/17 05:43:16;;;;;;;35.63;31.77;;;25.20;82.10;;;;;;5165522;27;20219;-69
2021/06/17 05:45:43;;;;;;;32.97;27.07;;;25.40;81.00;;;;;;5168768;27;20238;-69
2021/06/17 05:48:11;;;;;;;30.27;24.17;;;25.40;80.40;;;;;;5166976;27;20640;-69
2021/06/17 05:50:39;;;;;;;27.27;24.37;;;25.50;80.00;;;;;;5170081;27;20258;-69
2021/06/17 05:53:07;;;;;;;24.83;22.33;;;25.40;79.50;;;;;;5162770;27;20243;-69
2021/06/17 05:55:34;;;;;;;24.13;21.70;;;25.40;79.30;;;;;;5169122;27;20575;-69
2021/06/17 05:58:01;;;;;;;24.77;21.53;;;25.40;79.10;;;;;;5165836;27;20905;-69
2021/06/17 06:00:29;;;;;;;26.40;22.90;;;25.40;78.60;;;;;;5167676;27;20226;-69
2021/06/17 06:02:56;;;;;;;23.77;21.43;;;25.50;78.50;;;;;;5165347;27;20223;-70
2021/06/17 06:05:23;;;;;;;24.30;21.30;;;25.70;77.50;;;;;;5165102;27;20241;-70
2021/06/17 06:08:00;;;;;;;24.30;21.80;;;25.70;76.70;;;;;;5169648;27;20259;-70
2021/06/17 06:10:28;;;;;;;24.87;22.27;;;25.70;76.70;;;;;;5164788;27;20218;-70
2021/06/17 06:12:56;;;;;;;23.07;20.60;;;25.80;76.50;;;;;;5163587;27;20211;-70
2021/06/17 06:15:23;;;;;;;21.93;19.63;;;25.90;75.20;;;;;;5166500;27;20211;-70
2021/06/17 06:17:50;;;;;;;21.87;19.67;;;25.90;74.30;;;;;;5165160;27;20219;-70
2021/06/17 06:20:18;;;;;;;20.90;18.83;;;26.00;74.50;;;;;;5167326;27;20245;-70
2021/06/17 06:22:45;;;;;;;19.07;17.07;;;26.20;75.20;;;;;;5169163;27;20239;-70
2021/06/17 06:25:12;;;;;;;24.17;18.70;;;26.50;73.70;;;;;;5165994;27;20691;-70
2021/06/17 06:27:41;;;;;;;19.30;16.77;;;26.80;73.00;;;;;;5167341;27;20234;-70
2021/06/17 06:30:08;;;;;;;18.20;14.70;;;27.00;72.60;;;;;;5163410;27;20209;-70
2021/06/17 06:32:36;;;;;;;19.47;17.43;;;27.30;72.10;;;;;;5163358;27;20214;-70
2021/06/17 06:35:09;;;;;;;17.40;15.63;;;27.40;71.10;;;;;;5168455;27;20211;-70
2021/06/17 06:37:37;;;;;;;16.97;15.33;;;27.50;71.30;;;;;;5168161;27;20257;-70
2021/06/17 06:40:06;;;;;;;20.47;18.23;;;27.60;71.30;;;;;;5166376;27;20240;-70
2021/06/17 06:42:34;;;;;;;22.20;20.27;;;27.90;70.00;;;;;;5166586;27;20218;-70
2021/06/17 06:45:01;;;;;;;19.87;17.83;;;27.90;69.30;;;;;;5167498;27;20233;-70
2021/06/17 06:47:28;;;;;;;19.83;17.73;;;27.90;69.10;;;;;;5165470;27;20207;-70
2021/06/17 06:49:55;;;;;;;19.00;17.30;;;28.00;69.10;;;;;;5168498;27;20206;-70
2021/06/17 06:52:22;;;;;;;17.90;15.43;;;28.10;69.20;;;;;;5161000;27;20210;-70
2021/06/17 06:54:49;;;;;;;21.27;19.13;;;28.30;69.00;;;;;;5168077;27;20210;-70
2021/06/17 06:57:16;;;;;;;21.70;18.47;;;28.60;68.10;;;;;;5161412;27;20214;-70
2021/06/17 06:59:43;;;;;;;20.27;18.27;;;28.70;67.50;;;;;;5148177;27;20228;-70
2021/06/17 07:02:10;;;;;;;17.57;15.77;;;28.70;67.70;;;;;;5158644;27;20289;-70
2021/06/17 07:04:37;;;;;;;16.63;14.97;;;28.80;68.30;;;;;;5163364;27;20583;-70
2021/06/17 07:07:04;;;;;;;17.87;14.57;;;29.10;68.00;;;;;;5164679;27;20239;-70
2021/06/17 07:09:31;;;;;;;17.83;16.10;;;29.40;67.70;;;;;;5163243;27;20252;-70
2021/06/17 07:11:58;;;;;;;19.03;17.23;;;29.70;66.30;;;;;;5159958;27;20745;-70
2021/06/17 07:14:25;;;;;;;17.87;15.77;;;29.70;65.60;;;;;;5160031;27;20239;-70
2021/06/17 07:16:52;;;;;;;17.83;15.93;;;29.70;65.90;;;;;;5163380;27;20211;-70
2021/06/17 07:19:19;;;;;;;19.13;16.90;;;29.90;66.00;;;;;;5163844;27;20202;-70
2021/06/17 07:21:46;;;;;;;16.40;14.77;;;30.10;65.40;;;;;;5147497;27;20238;-70
2021/06/17 07:24:13;;;;;;;17.63;15.87;;;30.20;64.90;;;;;;5162100;27;20733;-70
2021/06/17 07:26:40;;;;;;;17.00;15.03;;;30.40;64.70;;;;;;5166768;27;20581;-70
2021/06/17 07:29:07;;;;;;;16.57;12.67;;;30.60;64.00;;;;;;5156293;27;20214;-70
2021/06/17 07:31:36;;;;;;;19.07;13.43;;;30.80;63.70;;;;;;5162585;27;20282;-70
2021/06/17 07:34:05;;;;;;;14.63;13.10;;;31.00;62.90;;;;;;5162006;27;20529;-70
2021/06/17 07:36:32;;;;;;;14.87;12.53;;;31.20;62.50;;;;;;5160570;27;20210;-70
2021/06/17 07:39:00;;;;;;;15.47;12.73;;;31.20;62.10;;;;;;5165710;27;20214;-70
2021/06/17 07:41:28;;;;;;;12.40;11.13;;;31.30;61.60;;;;;;5156464;27;20202;-70
2021/06/17 07:43:54;;;;;;;9.00;8.10;;;31.40;60.80;;;;;;5162337;27;20742;-70
2021/06/17 07:46:21;;;;;;;9.10;6.87;;;31.60;59.10;;;;;;5167306;27;20237;-70
2021/06/17 07:48:49;;;;;;;15.67;8.20;;;31.80;57.40;;;;;;5155794;27;20215;-70
2021/06/17 07:51:16;;;;;;;8.63;7.70;;;31.80;56.10;;;;;;5147512;27;20202;-70
2021/06/17 07:53:44;;;;;;;7.87;7.10;;;31.80;56.30;;;;;;5160479;27;20226;-70
2021/06/17 07:56:11;;;;;;;10.27;9.27;;;31.90;56.40;;;;;;5164721;27;20281;-70
2021/06/17 07:58:38;;;;;;;11.03;9.07;;;32.00;55.90;;;;;;5161082;27;20237;-70
2021/06/17 08:01:05;;;;;;;14.83;9.27;;;32.10;55.80;;;;;;5166458;27;20275;-70
2021/06/17 08:03:32;;;;;;;11.27;8.53;;;32.20;55.10;;;;;;5159510;27;20553;-70
2021/06/17 08:05:59;;;;;;;10.43;9.33;;;32.10;55.90;;;;;;5156736;27;20226;-70
2021/06/17 08:08:26;;;;;;;9.40;8.50;;;32.20;55.70;;;;;;5166046;27;20206;-70
2021/06/17 08:10:53;;;;;;;10.40;8.67;;;32.30;55.60;;;;;;5158323;27;20211;-70
2021/06/17 08:13:21;;;;;;;14.93;9.37;;;32.30;55.20;;;;;;5164434;27;20548;-70
2021/06/17 08:15:49;;;;;;;10.37;8.23;;;32.40;55.30;;;;;;5164933;27;20203;-70
2021/06/17 08:18:16;;;;;;;7.97;7.20;;;32.40;55.10;;;;;;5165544;27;20210;-70
2021/06/17 08:20:43;;;;;;;9.63;8.30;;;32.60;55.00;;;;;;5166223;27;20270;-70
2021/06/17 08:23:10;;;;;;;9.33;7.97;;;32.80;53.70;;;;;;5162511;27;20648;-70
2021/06/17 08:25:37;;;;;;;12.17;8.60;;;32.90;53.20;;;;;;5147719;27;20254;-70
2021/06/17 08:28:04;;;;;;;8.80;7.47;;;32.90;53.20;;;;;;5160058;27;20210;-70
2021/06/17 08:30:34;;;;;;;8.40;6.80;;;33.00;53.10;;;;;;5162165;27;20274;-70
2021/06/17 08:33:02;;;;;;;7.03;6.37;;;33.10;51.50;;;;;;5156739;27;20687;-70
2021/06/17 08:35:29;;;;;;;7.20;5.70;;;32.90;50.50;;;;;;5161899;27;20207;-70
2021/06/17 08:37:56;;;;;;;5.63;5.13;;;32.80;51.20;;;;;;5166560;27;20213;-70
2021/06/17 08:40:26;;;;;;;4.83;4.40;;;32.80;51.10;;;;;;5158665;27;20195;-70
2021/06/17 08:42:53;;;;;;;5.27;4.77;;;33.00;50.70;;;;;;5160035;27;20632;-70
2021/06/17 08:45:20;;;;;;;6.23;4.70;;;33.20;50.40;;;;;;5164136;27;20239;-70
2021/06/17 08:47:47;;;;;;;22.47;5.00;;;33.30;49.90;;;;;;5165692;27;20199;-70
2021/06/17 08:50:16;;;;;;;7.63;4.70;;;33.50;49.10;;;;;;5164664;27;20202;-70
2021/06/17 08:52:44;;;;;;;5.43;4.27;;;33.60;48.60;;;;;;5166059;27;20242;-70
2021/06/17 08:55:11;;;;;;;8.07;4.13;;;33.60;48.50;;;;;;5162913;27;20288;-70
2021/06/17 08:57:38;;;;;;;6.60;4.73;;;33.70;48.00;;;;;;5162462;27;20222;-70
2021/06/17 09:00:26;;;;;;;4.37;3.97;;;33.80;48.60;;;;;;5163618;27;20210;-70
2021/06/17 09:02:53;;;;;;;4.40;4.00;;;33.90;48.20;;;;;;5159437;27;20215;-70
2021/06/17 09:05:21;;;;;;;7.07;4.50;;;34.00;47.80;;;;;;5164185;27;20606;-70
2021/06/17 09:07:49;;;;;;;7.10;5.40;;;34.10;46.90;;;;;;5164229;27;20218;-70
2021/06/17 09:10:16;;;;;;;6.20;4.70;;;34.20;47.30;;;;;;5164519;27;20286;-69
2021/06/17 09:12:48;;;;;;;5.63;4.73;;;34.30;47.30;;;;;;5162524;27;20207;-70
2021/06/17 09:15:27;;;;;;;7.73;4.90;;;34.30;46.80;;;;;;5166409;27;20225;-70
2021/06/17 09:18:21;;;;;;;9.37;5.10;;;34.40;46.80;;;;;;5162521;27;20207;-70
2021/06/17 09:20:53;;;;;;;12.53;4.63;;;34.30;46.00;;;;;;5164011;27;20210;-69
2021/06/17 09:23:25;;;;;;;6.37;5.00;;;34.20;47.10;;;;;;5166096;27;20211;-69
2021/06/17 09:26:04;;;;;;;4.60;4.20;;;34.30;47.40;;;;;;5162719;27;20256;-69
2021/06/17 09:28:51;;;;;;;7.17;5.27;;;34.40;46.90;;;;;;5163255;27;20206;-69
2021/06/17 09:31:22;;;;;;;5.47;4.67;;;34.50;46.60;;;;;;5160731;27;20224;-69
2021/06/17 09:33:50;;;;;;;13.67;5.93;;;34.60;46.10;;;;;;5159867;27;20215;-69
2021/06/17 09:36:21;;;;;;;6.17;4.87;;;34.70;46.00;;;;;;5166174;27;20313;-69
2021/06/17 09:38:49;;;;;;;5.23;4.73;;;34.80;46.30;;;;;;5160527;27;20565;-69
2021/06/17 09:41:34;;;;;;;4.93;4.43;;;34.90;46.20;;;;;;5167826;27;20236;-69
2021/06/17 09:44:04;;;;;;;5.73;4.63;;;35.10;46.10;;;;;;5163197;27;20214;-70
2021/06/17 09:46:31;;;;;;;10.10;4.77;;;35.10;46.20;;;;;;5166000;27;20369;-69
2021/06/17 09:49:09;;;;;;;7.83;4.30;;;35.20;46.10;;;;;;5167937;27;20245;-69
2021/06/17 09:51:41;;;;;;;13.93;5.40;;;35.30;44.80;;;;;;5166283;27;20202;-70
2021/06/17 09:54:26;;;;;;;4.93;4.53;;;35.40;44.90;;;;;;5166792;27;20239;-70
2021/06/17 09:57:00;;;;;;;5.67;4.20;;;35.20;44.30;;;;;;5158280;27;20220;-69
2021/06/17 09:59:45;;;;;;;6.43;4.67;;;35.00;43.50;;;;;;5167573;27;20227;-69
2021/06/17 10:02:18;;;;;;;7.53;4.47;;;34.80;43.80;;;;;;5162660;27;20246;-69
2021/06/17 10:04:45;;;;;;;4.40;3.80;;;34.80;43.00;;;;;;5164250;27;20534;-70
2021/06/17 10:07:13;;;;;;;7.20;4.87;;;34.70;43.80;;;;;;5168153;27;20235;-69
2021/06/17 10:09:40;;;;;;;5.47;4.17;;;34.60;44.10;;;;;;5165625;27;20498;-69
2021/06/17 10:12:07;;;;;;;6.83;4.27;;;34.60;44.90;;;;;;5165836;27;20656;-69
2021/06/17 10:14:34;;;;;;;5.73;3.73;;;34.80;44.40;;;;;;5165550;27;20239;-69
2021/06/17 10:17:04;;;;;;;5.17;4.03;;;34.80;44.10;;;;;;5165230;27;20199;-69
2021/06/17 10:19:32;;;;;;;4.30;3.90;;;34.80;43.60;;;;;;5167425;27;20226;-69
2021/06/17 10:22:01;;;;;;;4.07;3.33;;;34.80;43.40;;;;;;5167130;27;20239;-69
2021/06/17 10:24:29;;;;;;;4.23;3.80;;;34.80;43.40;;;;;;5168372;27;20222;-69
2021/06/17 10:27:05;;;;;;;5.57;3.57;;;34.90;42.30;;;;;;5165202;27;20288;-69
2021/06/17 10:29:41;;;;;;;3.37;3.07;;;34.80;41.50;;;;;;5162162;27;20203;-69
2021/06/17 10:32:15;;;;;;;4.50;3.13;;;34.50;40.10;;;;;;5168264;27;20214;-69
2021/06/17 10:34:53;;;;;;;3.80;3.40;;;34.30;39.90;;;;;;5161800;27;20214;-69
2021/06/17 10:37:25;;;;;;;3.30;3.00;;;34.30;40.00;;;;;;5165782;27;20278;-69
2021/06/17 10:39:54;;;;;;;4.50;3.00;;;34.30;40.00;;;;;;5168575;27;20210;-69
2021/06/17 10:42:28;;;;;;;3.70;3.40;;;34.50;39.80;;;;;;5159593;27;20215;-69
2021/06/17 10:44:56;;;;;;;3.70;3.40;;;34.40;39.50;;;;;;5166344;27;20221;-69
2021/06/17 10:47:48;;;;;;;4.17;3.10;;;34.40;40.50;;;;;;5167000;27;20281;-68
2021/06/17 10:50:21;;;;;;;4.00;3.57;;;34.50;40.80;;;;;;5154960;27;20593;-69
2021/06/17 10:52:52;;;;;;;10.20;4.13;;;34.70;41.60;;;;;;5164028;27;20270;-69
2021/06/17 10:55:21;;;;;;;4.20;3.67;;;34.60;41.50;;;;;;5164655;27;20287;-69
2021/06/17 10:57:54;;;;;;;3.90;3.60;;;34.60;41.40;;;;;;5166648;27;20210;-70
2021/06/17 11:00:25;;;;;;;4.37;4.00;;;34.60;40.30;;;;;;5164300;27;20233;-69
2021/06/17 11:03:01;;;;;;;6.73;4.40;;;34.40;40.70;;;;;;5160485;27;20214;-69
2021/06/17 11:08:19;;;;;;;5.43;4.10;;;34.30;41.10;;;;;;5167561;27;20217;-69
2021/06/17 11:10:50;;;;;;;6.17;4.40;;;34.50;41.80;;;;;;5162333;27;20648;-69
2021/06/17 11:13:38;;;;;;;5.60;4.17;;;34.70;42.10;;;;;;5149658;27;20218;-69
2021/06/17 11:16:12;;;;;;;4.13;3.83;;;34.70;42.30;;;;;;5162888;27;20217;-69
2021/06/17 11:18:43;;;;;;;5.60;3.87;;;34.70;41.70;;;;;;5160048;27;20203;-69
2021/06/17 11:21:26;;;;;;;6.90;4.37;;;34.80;42.90;;;;;;5163095;27;20616;-69
2021/06/17 11:24:13;;;;;;;7.10;4.53;;;34.90;43.90;;;;;;5160122;27;20207;-69
2021/06/17 11:26:46;;;;;;;4.27;3.73;;;35.00;43.50;;;;;;5164775;27;20684;-69
2021/06/17 11:29:36;;;;;;;6.23;3.90;;;35.20;42.40;;;;;;5162501;27;20556;-69
2021/06/17 11:32:23;;;;;;;6.93;4.23;;;35.20;42.00;;;;;;5160842;27;20215;-69
2021/06/17 11:34:50;;;;;;;7.20;4.17;;;35.20;41.90;;;;;;5161479;27;20207;-69
2021/06/17 11:37:18;;;;;;;5.20;4.70;;;34.90;40.50;;;;;;5160440;27;20211;-69
2021/06/17 11:39:48;;;;;;;5.87;4.23;;;34.70;41.30;;;;;;5167018;27;20210;-69
2021/06/17 11:42:19;;;;;;;4.87;3.93;;;34.50;41.70;;;;;;5165684;27;20697;-69
2021/06/17 11:45:01;;;;;;;5.40;5.00;;;34.40;42.60;;;;;;5164917;27;20211;-69
2021/06/17 11:47:28;;;;;;;6.67;4.43;;;34.30;43.00;;;;;;5162169;27;20227;-69
2021/06/17 11:50:04;;;;;;;6.83;4.60;;;34.20;42.90;;;;;;5162404;27;20264;-69
2021/06/17 11:52:37;;;;;;;4.80;4.30;;;34.20;42.90;;;;;;5167138;27;20213;-69
2021/06/17 11:55:07;;;;;;;4.37;3.73;;;34.30;42.30;;;;;;5161629;27;20211;-69
2021/06/17 11:57:39;;;;;;;5.80;4.33;;;34.40;43.50;;;;;;5165526;27;20619;-69
2021/06/17 12:00:09;;;;;;;4.87;4.30;;;34.50;43.40;;;;;;5166677;27;20238;-69
2021/06/17 12:02:50;;;;;;;7.43;4.80;;;34.60;43.40;;;;;;5163252;27;20240;-69
2021/06/17 12:05:21;;;;;;;3.80;3.47;;;34.70;42.50;;;;;;5159918;27;20696;-69
2021/06/17 12:07:48;;;;;;;8.10;4.43;;;34.80;42.50;;;;;;5163783;27;20245;-69
2021/06/17 12:10:25;;;;;;;6.03;4.90;;;34.90;41.70;;;;;;5159399;27;20211;-70
2021/06/17 12:12:56;;;;;;;5.93;4.60;;;34.80;41.60;;;;;;5165141;27;20229;-69
2021/06/17 12:15:29;;;;;;;5.97;4.77;;;34.80;42.20;;;;;;5165023;27;20206;-69
2021/06/17 12:18:17;;;;;;;5.20;4.50;;;34.70;40.80;;;;;;5159779;27;20538;-69
2021/06/17 12:20:47;;;;;;;7.70;4.63;;;34.40;41.20;;;;;;5162436;27;20247;-69
2021/06/17 12:23:28;;;;;;;5.80;4.50;;;34.40;42.50;;;;;;5160460;27;20635;-68
2021/06/17 12:26:09;;;;;;;4.93;4.50;;;34.30;41.00;;;;;;5163620;27;20207;-69
2021/06/17 12:29:10;;;;;;;5.17;4.77;;;34.20;41.40;;;;;;5162346;27;20209;-69
2021/06/17 12:31:40;;;;;;;7.67;4.97;;;34.10;41.20;;;;;;5162914;27;20234;-69
2021/06/17 12:34:16;;;;;;;5.03;4.63;;;34.00;42.40;;;;;;5166503;27;20214;-69
2021/06/17 12:36:44;;;;;;;5.00;4.50;;;34.10;43.90;;;;;;5161717;27;20218;-69
2021/06/17 12:39:15;;;;;;;7.10;4.97;;;34.20;43.50;;;;;;5164874;27;20210;-69
2021/06/17 12:41:51;;;;;;;4.87;4.47;;;34.40;42.60;;;;;;5165823;27;20211;-69
2021/06/17 12:44:49;;;;;;;4.97;4.20;;;34.40;41.80;;;;;;5160873;27;20218;-69
2021/06/17 12:47:21;;;;;;;5.07;4.60;;;34.40;41.00;;;;;;5142020;27;20234;-69
2021/06/17 12:52:36;;;;;;;7.27;5.30;;;34.10;42.10;;;;;;5161105;27;20252;-69
2021/06/17 12:55:06;;;;;;;8.10;4.90;;;34.20;42.00;;;;;;5165223;27;20214;-69
2021/06/17 12:57:33;;;;;;;5.23;4.67;;;34.20;42.30;;;;;;5162918;27;20218;-69
2021/06/17 13:00:04;;;;;;;5.63;5.13;;;34.20;41.60;;;;;;5166941;27;20214;-68